Time;durP1;ratioP1;P1;durP2;ratioP2;P2;SDS_P1;SDS_P2;PMS_P1;PMS_P2;Temp;Humidity;BMP_temperature;BMP_pressure;BME280_temperature;BME280_humidity;BME280_pressure;Samples;Min_cycle;Max_cycle;Signal;HPM_P1;HPM_P2
2023/10/27 00:00:45;;;;;;;3.90;1.10;;;;;;;10.09;100.00;148669.06;5001525;28;20238;-58
2023/10/27 00:03:11;;;;;;;4.40;0.70;;;;;;;10.15;100.00;148682.75;5000800;28;20247;-58
2023/10/27 00:05:38;;;;;;;4.57;0.80;;;;;;;10.18;100.00;148690.22;5003573;28;20294;-58
2023/10/27 00:08:05;;;;;;;6.57;0.70;;;;;;;10.13;100.00;148677.75;5000984;28;20383;-58
2023/10/27 00:10:38;;;;;;;7.73;0.87;;;;;;;10.11;100.00;148672.78;5004327;28;20243;-58
2023/10/27 00:13:05;;;;;;;5.20;1.20;;;;;;;10.03;100.00;148655.41;5002149;28;20230;-57
2023/10/27 00:15:37;;;;;;;2.43;0.60;;;;;;;9.96;100.00;148636.69;5006688;28;20225;-58
2023/10/27 00:18:04;;;;;;;3.57;0.80;;;;;;;9.97;100.00;148640.44;5003549;28;20224;-57
2023/10/27 00:20:31;;;;;;;6.47;1.00;;;;;;;10.02;100.00;148651.63;5002737;28;20288;-58
2023/10/27 00:22:57;;;;;;;7.07;1.00;;;;;;;10.07;100.00;148662.88;5003152;28;20242;-58
2023/10/27 00:25:25;;;;;;;3.63;0.73;;;;;;;10.07;100.00;148664.09;5004509;28;20238;-58
2023/10/27 00:27:53;;;;;;;8.03;1.27;;;;;;;10.05;100.00;148659.09;5004612;28;20230;-58
2023/10/27 00:30:20;;;;;;;5.87;1.20;;;;;;;10.07;100.00;148664.09;5006109;28;20231;-56
2023/10/27 00:32:47;;;;;;;4.10;0.70;;;;;;;10.08;100.00;148665.31;5016614;28;20226;-58
2023/10/27 00:35:13;;;;;;;4.23;0.77;;;;;;;10.07;100.00;148664.09;5002159;28;20258;-59
2023/10/27 00:37:41;;;;;;;4.57;0.70;;;;;;;10.09;100.00;148669.06;5017426;28;20247;-59
2023/10/27 00:40:08;;;;;;;7.87;0.97;;;;;;;10.10;100.00;148671.56;5000652;28;20285;-58
2023/10/27 00:42:35;;;;;;;3.87;0.80;;;;;;;10.09;100.00;148669.06;4999430;28;20247;-58
2023/10/27 00:45:03;;;;;;;3.20;0.77;;;;;;;10.10;100.00;148671.56;5014179;28;20333;-58
2023/10/27 00:47:30;;;;;;;4.30;0.70;;;;;;;10.08;100.00;148665.31;5004689;28;20248;-59
2023/10/27 00:49:57;;;;;;;5.57;0.90;;;;;;;10.03;100.00;148654.13;5000827;28;20261;-58
2023/10/27 00:52:26;;;;;;;2.70;0.60;;;;;;;10.00;100.00;148646.66;4994407;28;20260;-58
2023/10/27 00:54:54;;;;;;;5.47;1.07;;;;;;;10.02;100.00;148652.91;5001260;28;20289;-59
2023/10/27 00:57:22;;;;;;;2.60;0.57;;;;;;;9.95;100.00;148635.47;5003849;28;20924;-58
2023/10/27 00:59:50;;;;;;;3.07;0.60;;;;;;;9.96;100.00;148637.97;4998218;28;20289;-58
2023/10/27 01:02:18;;;;;;;7.17;0.87;;;;;;;9.94;100.00;148631.72;5001378;28;20235;-58
2023/10/27 01:04:45;;;;;;;2.73;0.67;;;;;;;9.96;100.00;148636.69;5003908;28;20242;-58
2023/10/27 01:07:12;;;;;;;2.20;0.60;;;;;;;10.00;100.00;148646.66;5000885;28;20239;-58
2023/10/27 01:09:38;;;;;;;5.83;0.90;;;;;;;10.02;100.00;148652.91;5003371;28;20233;-58
2023/10/27 01:12:05;;;;;;;7.83;0.80;;;;;;;10.02;100.00;148652.91;5002695;28;20229;-58
2023/10/27 01:14:33;;;;;;;4.03;0.77;;;;;;;10.07;100.00;148664.09;5004840;28;20232;-58
2023/10/27 01:17:00;;;;;;;2.83;0.53;;;;;;;10.04;100.00;148656.63;4996937;28;20619;-58
2023/10/27 01:19:28;;;;;;;4.20;0.57;;;;;;;10.01;100.00;148650.41;5001498;28;20233;-58
2023/10/27 01:21:54;;;;;;;4.50;0.83;;;;;;;9.97;100.00;148640.44;4998065;28;20245;-58
2023/10/27 01:24:23;;;;;;;2.23;0.60;;;;;;;9.95;100.00;148634.22;5017453;28;20247;-58
2023/10/27 01:26:50;;;;;;;2.93;0.67;;;;;;;9.93;100.00;148630.50;5014734;28;20230;-58
2023/10/27 01:29:17;;;;;;;4.60;0.60;;;;;;;9.84;100.00;148609.31;5017788;28;20692;-59
2023/10/27 01:31:43;;;;;;;2.13;0.60;;;;;;;9.87;100.00;148615.56;4999182;28;20241;-59
2023/10/27 01:34:35;;;;;;;8.77;0.80;;;;;;;9.87;100.00;148616.78;5006053;28;20198;-58
2023/10/27 01:37:02;;;;;;;2.70;0.50;;;;;;;9.81;100.00;148601.84;5023682;28;20829;-59
2023/10/27 01:39:29;;;;;;;3.70;0.60;;;;;;;9.77;100.00;148591.88;4996057;28;20236;-59
2023/10/27 01:41:56;;;;;;;3.60;1.10;;;;;;;9.71;100.00;148576.94;5000308;28;20242;-58
2023/10/27 01:44:23;;;;;;;3.93;0.70;;;;;;;9.70;100.00;148575.72;4992295;28;20227;-56
2023/10/27 01:46:49;;;;;;;4.07;0.60;;;;;;;9.69;100.00;148573.22;4998757;28;20725;-57
2023/10/27 01:49:16;;;;;;;3.80;0.70;;;;;;;9.64;100.00;148559.50;5004025;28;20233;-58
2023/10/27 01:51:42;;;;;;;8.60;1.83;;;;;;;9.62;100.00;148555.81;4994777;28;20704;-58
2023/10/27 01:54:09;;;;;;;2.50;0.50;;;;;;;9.56;100.00;148542.09;5018855;28;20233;-58
2023/10/27 01:56:37;;;;;;;2.67;0.40;;;;;;;9.55;100.00;148539.59;4999114;28;20290;-58
2023/10/27 01:59:04;;;;;;;7.83;0.70;;;;;;;9.49;100.00;148524.69;5003900;28;20228;-57
2023/10/27 02:01:30;;;;;;;3.47;0.77;;;;;;;9.45;100.00;148515.97;4993302;28;20672;-59
2023/10/27 02:03:57;;;;;;;4.00;0.60;;;;;;;9.41;100.00;148506.00;5001826;28;20234;-59
2023/10/27 02:06:24;;;;;;;4.33;0.50;;;;;;;9.42;100.00;148507.28;5003054;28;20253;-57
2023/10/27 02:08:51;;;;;;;1.93;0.43;;;;;;;9.45;100.00;148515.97;4997141;28;20252;-59
2023/10/27 02:11:18;;;;;;;4.00;0.40;;;;;;;9.48;100.00;148522.22;5002574;28;20230;-58
2023/10/27 02:13:46;;;;;;;2.93;0.60;;;;;;;9.44;100.00;148513.47;4999860;28;20229;-59
2023/10/27 02:16:13;;;;;;;2.17;0.53;;;;;;;9.46;100.00;148517.22;5001569;28;20239;-59
2023/10/27 02:18:40;;;;;;;3.33;0.60;;;;;;;9.43;100.00;148511.00;4994420;28;20232;-59
2023/10/27 02:21:06;;;;;;;3.07;0.70;;;;;;;9.45;100.00;148514.75;4996191;28;20318;-59
2023/10/27 02:23:33;;;;;;;3.80;0.60;;;;;;;9.31;100.00;148481.13;5009338;28;20733;-58
2023/10/27 02:26:00;;;;;;;4.07;0.60;;;;;;;9.36;100.00;148493.56;4999119;28;20509;-59
2023/10/27 02:28:26;;;;;;;3.63;0.60;;;;;;;9.38;100.00;148498.53;5010664;28;20238;-58
2023/10/27 02:30:54;;;;;;;2.73;0.50;;;;;;;9.38;100.00;148498.53;5001227;28;20230;-58
2023/10/27 02:33:21;;;;;;;3.20;0.50;;;;;;;9.40;100.00;148502.31;4992032;28;20753;-58
2023/10/27 02:35:47;;;;;;;3.43;0.60;;;;;;;9.36;100.00;148492.34;5009900;28;20694;-58
2023/10/27 02:38:16;;;;;;;4.47;0.70;;;;;;;9.35;100.00;148489.84;5000184;28;20313;-59
2023/10/27 02:40:42;;;;;;;2.87;0.50;;;;;;;9.34;100.00;148487.38;4998231;28;20229;-58
2023/10/27 02:43:11;;;;;;;4.30;0.60;;;;;;;9.34;100.00;148488.59;4997434;28;20227;-58
2023/10/27 02:45:37;;;;;;;1.07;0.50;;;;;;;9.37;100.00;148494.84;4992533;28;20689;-58
2023/10/27 02:48:06;;;;;;;2.63;0.50;;;;;;;9.35;100.00;148489.84;4997893;28;20580;-59
2023/10/27 02:50:32;;;;;;;1.87;0.47;;;;;;;9.30;100.00;148478.63;4995637;28;20264;-58
2023/10/27 02:52:59;;;;;;;4.50;0.57;;;;;;;9.32;100.00;148482.38;5001573;28;20238;-58
2023/10/27 02:55:26;;;;;;;4.03;0.50;;;;;;;9.36;100.00;148492.34;5001672;28;20233;-59
2023/10/27 02:57:52;;;;;;;6.37;0.63;;;;;;;9.29;100.00;148477.41;4997357;28;20741;-58
2023/10/27 03:00:20;;;;;;;2.40;0.60;;;;;;;9.29;100.00;148477.41;5002351;28;20227;-58
2023/10/27 03:02:49;;;;;;;4.23;0.40;;;;;;;9.30;100.00;148478.63;4998900;28;20231;-58
2023/10/27 03:05:18;;;;;;;2.37;0.30;;;;;;;9.30;100.00;148479.91;4998502;28;20245;-58
2023/10/27 03:07:49;;;;;;;2.30;0.63;;;;;;;9.34;100.00;148488.59;5002036;28;20241;-58
2023/10/27 03:10:16;;;;;;;3.43;0.50;;;;;;;9.33;100.00;148486.09;5018109;28;20227;-58
2023/10/27 03:12:43;;;;;;;4.53;0.50;;;;;;;9.34;100.00;148488.59;5003070;28;20244;-58
2023/10/27 03:15:10;;;;;;;1.77;0.60;;;;;;;9.32;100.00;148483.59;5002886;28;20287;-58
2023/10/27 03:17:37;;;;;;;4.47;0.40;;;;;;;9.33;100.00;148486.09;4999386;28;20561;-58
2023/10/27 03:20:04;;;;;;;6.50;0.57;;;;;;;9.36;100.00;148492.34;5001970;28;20229;-58
2023/10/27 03:22:33;;;;;;;2.53;0.73;;;;;;;9.33;100.00;148486.09;4991683;28;20284;-58
2023/10/27 03:24:59;;;;;;;2.67;0.63;;;;;;;9.34;100.00;148487.38;5000961;28;20289;-58
2023/10/27 03:27:26;;;;;;;4.37;0.60;;;;;;;9.34;100.00;148488.59;5005755;28;20231;-59
2023/10/27 03:29:53;;;;;;;3.73;0.50;;;;;;;9.34;100.00;148488.59;4981055;28;20231;-59
2023/10/27 03:32:20;;;;;;;1.80;0.50;;;;;;;9.28;100.00;148474.91;5229474;23;20241;-59
2023/10/27 03:34:46;;;;;;;3.37;0.70;;;;;;;9.32;100.00;148482.38;5027472;28;21734;-59
2023/10/27 03:37:13;;;;;;;1.90;0.50;;;;;;;9.32;100.00;148483.59;5015325;28;20231;-59
2023/10/27 03:39:42;;;;;;;1.53;0.47;;;;;;;9.34;100.00;148487.38;5011502;28;20229;-58
2023/10/27 03:42:09;;;;;;;6.20;0.50;;;;;;;9.36;100.00;148493.56;4990476;28;20234;-60
2023/10/27 03:44:36;;;;;;;3.77;0.50;;;;;;;9.39;100.00;148499.81;5007324;28;20232;-58
2023/10/27 03:47:04;;;;;;;0.83;0.40;;;;;;;9.41;100.00;148506.00;4996769;28;20239;-60
2023/10/27 03:49:30;;;;;;;1.73;0.37;;;;;;;9.39;100.00;148499.81;4996766;28;20420;-60
2023/10/27 03:51:59;;;;;;;6.67;0.70;;;;;;;9.41;100.00;148504.78;5004149;28;20239;-60
2023/10/27 03:54:25;;;;;;;3.30;0.60;;;;;;;9.43;100.00;148509.78;5005439;28;20318;-58
2023/10/27 03:56:53;;;;;;;4.50;0.60;;;;;;;9.27;100.00;148471.16;4980295;28;20302;-59
2023/10/27 03:59:20;;;;;;;2.27;0.40;;;;;;;9.28;100.00;148474.91;5017251;28;20300;-58
2023/10/27 04:01:47;;;;;;;1.87;0.47;;;;;;;9.34;100.00;148487.38;4999962;28;20250;-60
2023/10/27 04:04:14;;;;;;;5.80;0.60;;;;;;;9.37;100.00;148496.06;5001991;28;20234;-57
2023/10/27 04:06:41;;;;;;;2.17;0.40;;;;;;;9.38;100.00;148497.31;5003025;28;20230;-58
2023/10/27 04:09:11;;;;;;;1.50;0.47;;;;;;;9.39;100.00;148501.03;4998557;28;20236;-59
2023/10/27 04:11:37;;;;;;;4.63;1.13;;;;;;;9.41;100.00;148504.78;5003032;28;20234;-58
2023/10/27 04:14:06;;;;;;;5.53;0.87;;;;;;;9.42;100.00;148508.50;4990115;28;20229;-59
2023/10/27 04:16:32;;;;;;;3.63;0.73;;;;;;;9.46;100.00;148517.22;4998404;28;20223;-58
2023/10/27 04:18:59;;;;;;;2.07;0.70;;;;;;;9.47;100.00;148519.72;4991787;28;20238;-58
2023/10/27 04:21:26;;;;;;;2.33;0.50;;;;;;;9.49;100.00;148524.69;5005020;28;20233;-59
2023/10/27 04:23:52;;;;;;;6.07;0.83;;;;;;;9.51;100.00;148528.41;5000323;28;20313;-58
2023/10/27 04:26:19;;;;;;;2.37;0.43;;;;;;;9.51;100.00;148529.69;5003515;28;20586;-58
2023/10/27 04:28:46;;;;;;;5.73;0.73;;;;;;;9.52;100.00;148530.91;5002671;28;21220;-58
2023/10/27 04:31:14;;;;;;;14.37;7.20;;;;;;;9.55;100.00;148538.38;5004519;28;20724;-59
2023/10/27 04:33:43;;;;;;;5.43;4.43;;;;;;;9.55;100.00;148539.59;5001687;28;20237;-58
2023/10/27 04:36:13;;;;;;;5.47;0.70;;;;;;;9.54;100.00;148535.88;5003620;28;20307;-57
2023/10/27 04:38:40;;;;;;;2.00;0.50;;;;;;;9.59;100.00;148548.34;5003368;28;20228;-58
2023/10/27 04:41:06;;;;;;;1.80;0.80;;;;;;;9.55;100.00;148538.38;5005434;28;20730;-58
2023/10/27 04:43:33;;;;;;;10.77;5.90;;;;;;;9.54;100.00;148535.88;5001066;28;20213;-58
2023/10/27 04:46:00;;;;;;;2.30;1.27;;;;;;;9.56;100.00;148542.09;5003328;28;20686;-59
2023/10/27 04:48:28;;;;;;;2.43;1.00;;;;;;;9.58;100.00;148545.84;5002212;28;20248;-58
2023/10/27 04:51:02;;;;;;;4.00;1.00;;;;;;;9.51;100.00;148529.69;5002068;28;20244;-58
2023/10/27 04:53:30;;;;;;;4.47;1.00;;;;;;;9.51;100.00;148528.41;4998655;28;20226;-58
2023/10/27 04:55:56;;;;;;;4.20;1.43;;;;;;;9.51;100.00;148529.69;5004328;28;20287;-59
2023/10/27 04:58:23;;;;;;;1.73;0.70;;;;;;;9.50;100.00;148527.19;5003806;28;20227;-58
2023/10/27 05:00:50;;;;;;;4.50;1.30;;;;;;;9.58;100.00;148547.06;5001916;28;20226;-58
2023/10/27 05:03:17;;;;;;;5.20;2.10;;;;;;;9.56;100.00;148542.09;5018623;28;20227;-58
2023/10/27 05:05:45;;;;;;;1.53;0.63;;;;;;;9.63;100.00;148557.03;5001637;28;20240;-58
2023/10/27 05:08:12;;;;;;;3.23;0.60;;;;;;;9.60;100.00;148552.03;5004972;28;20264;-59
2023/10/27 05:10:40;;;;;;;1.03;0.60;;;;;;;9.60;100.00;148550.81;5001483;28;20300;-59
2023/10/27 05:13:07;;;;;;;1.90;0.60;;;;;;;9.62;100.00;148554.53;5001817;28;20232;-58
2023/10/27 05:15:34;;;;;;;3.17;1.70;;;;;;;9.58;100.00;148547.06;4983646;28;20316;-58
2023/10/27 05:18:04;;;;;;;9.97;5.50;;;;;;;9.67;100.00;148566.97;4969513;28;20226;-58
2023/10/27 05:20:31;;;;;;;1.93;1.80;;;;;;;9.77;100.00;148590.66;4990942;28;20240;-57
2023/10/27 05:22:59;;;;;;;3.57;1.40;;;;;;;9.79;100.00;148596.84;5005247;28;20329;-58
2023/10/27 05:25:26;;;;;;;6.68;3.72;;;;;;;9.85;100.00;148610.56;5005188;28;20443;-59
2023/10/27 05:27:52;;;;;;;3.03;1.50;;;;;;;10.04;100.00;148656.63;4982180;28;20317;-59
2023/10/27 05:30:19;;;;;;;1.73;1.00;;;;;;;10.10;100.00;148670.28;4995207;28;20245;-59
2023/10/27 05:32:49;;;;;;;3.03;0.50;;;;;;;10.16;100.00;148685.22;4993317;28;20233;-58
2023/10/27 05:35:16;;;;;;;3.90;3.60;;;;;;;10.12;100.00;148675.28;5004490;28;20231;-59
2023/10/27 05:37:42;;;;;;;1.80;1.43;;;;;;;10.11;100.00;148674.03;4999648;28;20242;-58
2023/10/27 05:40:12;;;;;;;1.27;0.83;;;;;;;10.13;100.00;148677.75;5003932;28;20284;-58
2023/10/27 05:42:38;;;;;;;3.07;2.03;;;;;;;10.14;100.00;148680.25;4996022;28;20229;-59
2023/10/27 05:45:07;;;;;;;1.43;0.90;;;;;;;10.12;100.00;148676.53;5002136;28;20302;-59
2023/10/27 05:47:33;;;;;;;2.10;0.93;;;;;;;10.11;100.00;148672.78;5000300;28;20312;-58
2023/10/27 05:50:00;;;;;;;2.73;0.97;;;;;;;10.17;100.00;148689.00;5003234;28;20597;-59
2023/10/27 05:52:27;;;;;;;1.07;0.43;;;;;;;10.19;100.00;148692.69;5003139;28;20632;-58
2023/10/27 05:54:54;;;;;;;2.03;0.67;;;;;;;10.18;100.00;148691.47;4980404;28;20675;-58
2023/10/27 05:57:22;;;;;;;0.50;0.40;;;;;;;10.17;100.00;148689.00;5003241;28;20731;-58
2023/10/27 05:59:48;;;;;;;1.30;0.80;;;;;;;10.15;100.00;148682.75;5000518;28;20225;-59
2023/10/27 06:02:15;;;;;;;2.40;0.80;;;;;;;10.16;100.00;148685.22;5003635;28;20225;-58
2023/10/27 06:04:42;;;;;;;2.73;0.80;;;;;;;10.13;100.00;148677.75;5000941;28;20235;-55
2023/10/27 06:07:08;;;;;;;1.27;0.50;;;;;;;10.17;100.00;148687.72;5004030;28;20224;-58
2023/10/27 06:09:35;;;;;;;1.47;0.90;;;;;;;10.19;100.00;148692.69;4998321;28;20228;-58
2023/10/27 06:12:02;;;;;;;0.97;0.57;;;;;;;10.18;100.00;148691.47;4996757;28;20244;-59
2023/10/27 06:14:30;;;;;;;1.17;0.87;;;;;;;10.22;100.00;148700.19;4987718;28;20225;-59
2023/10/27 06:16:57;;;;;;;1.60;0.47;;;;;;;10.21;100.00;148697.69;4998242;28;20236;-59
2023/10/27 06:19:24;;;;;;;2.40;0.50;;;;;;;10.26;100.00;148708.91;5001438;28;20235;-58
2023/10/27 06:21:51;;;;;;;1.20;0.30;;;;;;;10.29;100.00;148717.59;5001517;28;20230;-58
2023/10/27 06:24:17;;;;;;;1.50;0.40;;;;;;;10.30;100.00;148720.09;5004605;28;20280;-58
2023/10/27 06:26:44;;;;;;;1.77;0.90;;;;;;;10.29;100.00;148717.59;5002782;28;20341;-58
2023/10/27 06:29:11;;;;;;;1.23;0.40;;;;;;;10.32;100.00;148725.09;4988904;28;20241;-59
2023/10/27 06:31:39;;;;;;;3.10;0.40;;;;;;;10.31;100.00;148722.59;5000410;28;20230;-58
2023/10/27 06:34:05;;;;;;;1.03;0.50;;;;;;;10.35;100.00;148731.34;5003793;28;20656;-58
2023/10/27 06:36:32;;;;;;;0.90;0.50;;;;;;;10.34;100.00;148728.84;5002710;28;20299;-58
2023/10/27 06:38:59;;;;;;;1.00;0.47;;;;;;;10.40;100.00;148742.56;4996126;28;20238;-58
2023/10/27 06:41:26;;;;;;;0.90;0.50;;;;;;;10.42;100.00;148748.81;5000549;28;20246;-58
2023/10/27 06:43:53;;;;;;;10.23;6.67;;;;;;;10.40;100.00;148742.56;4994104;28;20242;-58
2023/10/27 06:46:19;;;;;;;1.07;0.40;;;;;;;10.37;100.00;148735.03;5004950;28;20277;-57
2023/10/27 06:48:47;;;;;;;1.37;0.37;;;;;;;10.40;100.00;148743.84;4999158;28;20694;-58
2023/10/27 06:51:14;;;;;;;0.60;0.30;;;;;;;10.37;100.00;148735.03;4984631;28;20303;-57
2023/10/27 06:53:40;;;;;;;5.73;4.80;;;;;;;10.36;100.00;148732.56;5005600;28;20230;-57
2023/10/27 06:56:07;;;;;;;1.83;1.00;;;;;;;10.32;100.00;148725.09;4998644;28;20226;-58
2023/10/27 06:58:34;;;;;;;6.00;1.50;;;;;;;10.34;100.00;148730.06;5001633;28;20234;-58
2023/10/27 07:01:06;;;;;;;4.10;2.53;;;;;;;10.25;100.00;148707.66;5004610;28;20227;-58
2023/10/27 07:03:34;;;;;;;4.30;2.73;;;;;;;10.27;100.00;148711.41;5001530;28;20328;-55
2023/10/27 07:06:03;;;;;;;1.67;0.53;;;;;;;10.23;100.00;148701.44;5004409;28;20283;-57
2023/10/27 07:08:30;;;;;;;1.63;1.10;;;;;;;10.24;100.00;148705.16;5000730;28;20281;-58
2023/10/27 07:10:58;;;;;;;1.77;1.60;;;;;;;10.18;100.00;148690.22;5004260;28;20243;-58
2023/10/27 07:13:25;;;;;;;1.60;0.30;;;;;;;10.11;100.00;148672.78;5003167;28;20821;-58
2023/10/27 07:15:53;;;;;;;0.67;0.20;;;;;;;10.03;100.00;148654.13;5001277;28;20256;-58
2023/10/27 07:18:19;;;;;;;0.67;0.20;;;;;;;10.11;100.00;148672.78;5004525;28;20799;-58
2023/10/27 07:20:46;;;;;;;0.27;0.20;;;;;;;10.09;100.00;148669.06;5001799;28;20736;-58
2023/10/27 07:23:15;;;;;;;2.67;0.40;;;;;;;10.05;100.00;148659.09;5003347;28;20242;-56
2023/10/27 07:25:42;;;;;;;1.50;1.40;;;;;;;10.16;100.00;148685.22;4999255;28;20281;-57
2023/10/27 07:28:09;;;;;;;3.33;0.97;;;;;;;10.16;100.00;148685.22;5004097;28;20293;-59
2023/10/27 07:30:36;;;;;;;1.13;0.47;;;;;;;10.16;100.00;148685.22;4984885;28;20231;-58
2023/10/27 07:33:03;;;;;;;1.90;0.63;;;;;;;10.20;100.00;148695.19;4989140;28;20383;-57
2023/10/27 07:35:31;;;;;;;2.67;0.60;;;;;;;10.23;100.00;148701.44;5001593;28;20229;-56
2023/10/27 07:37:57;;;;;;;0.50;0.40;;;;;;;10.20;100.00;148695.19;5004566;28;20236;-58
2023/10/27 07:40:26;;;;;;;2.13;0.50;;;;;;;10.37;100.00;148736.31;5004256;28;20234;-58
2023/10/27 07:42:52;;;;;;;2.37;1.00;;;;;;;10.25;100.00;148707.66;5001509;28;20250;-58
2023/10/27 07:45:19;;;;;;;2.27;0.60;;;;;;;10.23;100.00;148701.44;5004613;28;20308;-58
2023/10/27 07:47:50;;;;;;;0.80;0.50;;;;;;;10.13;100.00;148677.75;4990810;28;20320;-59
2023/10/27 07:50:17;;;;;;;1.27;0.40;;;;;;;10.08;100.00;148666.59;4993782;28;20229;-58
2023/10/27 07:52:49;;;;;;;3.33;0.60;;;;;;;10.10;100.00;148670.28;4988422;28;20324;-59
2023/10/27 07:55:16;;;;;;;1.50;0.73;;;;;;;10.07;100.00;148664.09;5007642;28;20249;-59
2023/10/27 07:57:44;;;;;;;0.93;0.80;;;;;;;10.23;100.00;148701.44;5004581;28;20989;-59
2023/10/27 08:00:11;;;;;;;1.80;1.03;;;;;;;10.38;100.00;148737.53;4999538;28;20233;-58
2023/10/27 08:02:38;;;;;;;1.77;0.70;;;;;;;10.32;100.00;148725.09;5003977;28;20783;-59
2023/10/27 08:05:06;;;;;;;3.03;1.17;;;;;;;10.48;100.00;148763.75;5007387;28;20225;-58
2023/10/27 08:07:32;;;;;;;3.63;1.30;;;;;;;10.48;100.00;148763.75;5005576;28;20235;-57
2023/10/27 08:09:59;;;;;;;2.07;1.33;;;;;;;10.41;100.00;148746.31;5007782;28;20250;-58
2023/10/27 08:12:26;;;;;;;1.17;0.50;;;;;;;10.40;100.00;148743.84;5007742;28;20226;-58
2023/10/27 08:14:53;;;;;;;0.77;0.60;;;;;;;10.36;100.00;148733.81;5003781;28;20238;-58
2023/10/27 08:17:20;;;;;;;2.70;1.70;;;;;;;10.48;100.00;148763.75;5004512;28;20238;-58
2023/10/27 08:19:47;;;;;;;1.37;0.67;;;;;;;10.42;100.00;148748.81;4997458;28;20222;-57
2023/10/27 08:22:13;;;;;;;1.77;0.60;;;;;;;10.45;100.00;148755.03;4999644;28;20245;-58
2023/10/27 08:24:40;;;;;;;1.77;1.00;;;;;;;10.39;100.00;148741.34;5003002;28;20290;-58
2023/10/27 08:27:06;;;;;;;1.20;0.73;;;;;;;10.50;100.00;148766.25;5003145;28;20718;-58
2023/10/27 08:29:33;;;;;;;2.13;0.60;;;;;;;10.32;100.00;148723.84;4992781;28;20221;-57
2023/10/27 08:32:01;;;;;;;2.27;1.17;;;;;;;10.38;100.00;148737.53;5000469;28;20235;-58
2023/10/27 08:34:27;;;;;;;5.07;1.53;;;;;;;10.41;100.00;148746.31;4991542;28;20231;-59
2023/10/27 08:36:54;;;;;;;2.10;1.00;;;;;;;10.48;100.00;148763.75;5005607;28;20238;-58
2023/10/27 08:39:20;;;;;;;2.60;0.83;;;;;;;10.66;100.00;148806.06;5005366;28;20229;-59
2023/10/27 08:41:48;;;;;;;3.00;1.00;;;;;;;10.85;100.00;148850.91;5002270;28;20660;-58
2023/10/27 08:44:17;;;;;;;6.37;3.20;;;;;;;10.87;100.00;148857.16;5003062;28;20238;-62
2023/10/27 08:46:43;;;;;;;5.13;1.27;;;;;;;10.69;100.00;148812.31;4977093;28;20708;-59
2023/10/27 08:49:11;;;;;;;4.13;1.57;;;;;;;10.77;100.00;148833.47;4998585;28;20283;-58
2023/10/27 08:51:40;;;;;;;4.57;1.97;;;;;;;10.91;100.00;148867.13;4990580;28;20227;-58
2023/10/27 08:54:07;;;;;;;10.43;4.80;;;;;;;10.69;100.00;148812.31;5005767;28;20332;-58
2023/10/27 08:56:33;;;;;;;4.47;2.50;;;;;;;10.81;100.00;148840.94;5000476;28;20233;-56
2023/10/27 08:59:00;;;;;;;4.57;2.47;;;;;;;10.89;100.00;148862.16;5005182;28;20231;-56
2023/10/27 09:01:27;;;;;;;8.03;1.10;;;;;;;11.06;100.00;148902.00;5003159;28;20695;-58
2023/10/27 09:04:07;;;;;;;3.23;0.80;;;;;;;10.97;100.00;148880.81;5000918;28;20301;-57
2023/10/27 09:06:35;;;;;;;4.03;1.00;;;;;;;11.07;100.00;148905.72;5002522;28;20237;-58
2023/10/27 09:09:02;;;;;;;4.07;0.87;;;;;;;11.20;100.00;148936.84;5003304;28;20244;-59
2023/10/27 09:11:29;;;;;;;2.97;1.10;;;;;;;11.04;100.00;148897.03;5000125;28;20297;-58
2023/10/27 09:13:55;;;;;;;8.60;1.30;;;;;;;11.19;100.00;148933.13;5005046;28;20241;-58
2023/10/27 09:16:25;;;;;;;3.40;0.80;;;;;;;11.18;100.00;148930.66;4997653;28;20284;-59
2023/10/27 09:18:52;;;;;;;2.37;1.20;;;;;;;11.35;100.00;148973.03;5001915;28;20242;-58
2023/10/27 09:21:30;;;;;;;4.70;1.40;;;;;;;11.14;100.00;148921.91;5005671;28;20235;-58
2023/10/27 09:23:58;;;;;;;5.90;0.87;;;;;;;11.20;100.00;148935.63;4994134;28;20329;-59
2023/10/27 09:26:29;;;;;;;5.00;0.90;;;;;;;11.15;100.00;148923.16;4995102;28;20232;-57
2023/10/27 09:29:03;;;;;;;5.10;1.00;;;;;;;11.29;100.00;148958.06;4994162;28;20231;-57
2023/10/27 09:31:33;;;;;;;6.50;1.10;;;;;;;11.36;100.00;148975.50;5000286;28;20227;-58
2023/10/27 09:34:16;;;;;;;3.23;0.80;;;;;;;11.35;100.00;148973.03;5003180;28;20227;-59
2023/10/27 09:36:45;;;;;;;4.63;1.43;;;;;;;11.45;100.00;148995.44;4999610;28;20234;-59
2023/10/27 09:39:16;;;;;;;3.73;1.00;;;;;;;11.80;100.00;149080.16;4998096;28;20221;-59
2023/10/27 09:41:45;;;;;;;9.77;4.83;;;;;;;12.05;100.00;149140.03;4993681;28;20236;-58
2023/10/27 09:44:15;;;;;;;5.90;1.30;;;;;;;12.01;100.00;149130.06;5003609;28;20288;-59
2023/10/27 09:46:49;;;;;;;3.30;0.80;;;;;;;12.08;100.00;149147.53;4999890;28;20228;-59
2023/10/27 09:49:25;;;;;;;6.23;1.70;;;;;;;12.16;100.00;149166.25;4999201;28;20233;-56
2023/10/27 09:51:59;;;;;;;3.33;1.00;;;;;;;12.21;100.00;149179.94;4999378;28;20253;-57
2023/10/27 09:54:30;;;;;;;5.47;1.13;;;;;;;12.07;100.00;149146.31;4986688;28;20231;-56
2023/10/27 09:56:59;;;;;;;8.03;1.30;;;;;;;11.88;100.00;149100.09;4990110;28;20686;-57
2023/10/27 09:59:27;;;;;;;4.43;0.90;;;;;;;11.88;100.00;149100.09;4992958;28;20234;-58
2023/10/27 10:01:55;;;;;;;3.90;1.33;;;;;;;11.98;100.00;149122.53;4999910;28;20255;-58
2023/10/27 10:04:56;;;;;;;6.20;0.80;;;;;;;12.02;100.00;149132.56;5004543;28;20238;-59
2023/10/27 10:07:30;;;;;;;3.83;1.00;;;;;;;12.39;100.00;149222.34;5001649;28;20224;-58
2023/10/27 10:09:59;;;;;;;5.37;0.90;;;;;;;12.42;100.00;149228.56;5007836;28;20562;-59
2023/10/27 10:12:25;;;;;;;2.77;0.90;;;;;;;12.16;99.57;149167.47;5003265;28;20238;-58
2023/10/27 10:14:53;;;;;;;4.73;1.40;;;;;;;11.95;100.00;149117.56;4983739;28;20242;-58
2023/10/27 10:17:39;;;;;;;5.67;1.10;;;;;;;12.13;100.00;149158.78;4996992;28;20239;-59
2023/10/27 10:20:07;;;;;;;7.13;2.20;;;;;;;12.21;100.00;149178.69;4996164;28;20395;-56
2023/10/27 10:22:53;;;;;;;6.33;3.57;;;;;;;12.19;100.00;149173.72;4985820;28;20245;-58
2023/10/27 10:25:28;;;;;;;8.30;1.47;;;;;;;12.12;100.00;149156.28;4995047;28;20233;-56
2023/10/27 10:28:27;;;;;;;5.07;1.40;;;;;;;12.27;100.00;149192.41;4985021;28;20221;-56
2023/10/27 10:31:23;;;;;;;30.50;18.60;;;;;;;12.34;100.00;149209.88;4955309;28;1071272;-59
2023/10/27 10:33:51;;;;;;;5.40;1.27;;;;;;;12.60;99.97;149272.22;4990765;28;20276;-58
2023/10/27 10:36:27;;;;;;;4.50;1.20;;;;;;;12.55;97.30;149262.25;4999783;28;21192;-57
2023/10/27 10:38:58;;;;;;;7.20;0.90;;;;;;;12.74;95.84;149307.09;4999378;28;20338;-58
2023/10/27 10:41:58;;;;;;;6.20;1.10;;;;;;;12.45;98.68;149237.31;4995947;28;20231;-57
2023/10/27 10:44:28;;;;;;;6.20;1.20;;;;;;;12.64;95.61;149282.22;4991073;28;20237;-58
2023/10/27 10:46:55;;;;;;;4.77;0.97;;;;;;;13.07;94.13;149386.94;4994004;28;20250;-58
2023/10/27 10:49:26;;;;;;;7.67;1.10;;;;;;;13.22;91.99;149421.88;4996285;28;20234;-58
2023/10/27 10:51:53;;;;;;;4.20;0.90;;;;;;;13.18;89.97;149411.88;5001696;28;20235;-58
2023/10/27 10:54:25;;;;;;;5.37;1.10;;;;;;;13.36;89.05;149456.81;5003885;28;20694;-58
2023/10/27 10:56:59;;;;;;;4.93;0.87;;;;;;;12.97;93.59;149362.00;4989034;28;20244;-58
2023/10/27 10:59:27;;;;;;;6.60;1.13;;;;;;;13.05;92.38;149381.94;4991267;28;20231;-58
2023/10/27 11:01:57;;;;;;;3.83;1.60;;;;;;;13.25;94.06;149429.38;5000948;28;20236;-58
2023/10/27 11:04:31;;;;;;;5.07;1.10;;;;;;;13.04;93.64;149378.22;5018923;28;20231;-59
2023/10/27 11:07:00;;;;;;;5.00;1.03;;;;;;;12.66;99.02;149288.41;4989329;28;20237;-58
2023/10/27 11:09:27;;;;;;;9.90;3.83;;;;;;;12.69;100.00;149295.91;5000737;28;20238;-56
2023/10/27 11:11:55;;;;;;;4.37;1.40;;;;;;;12.54;100.00;149259.75;5016766;28;20250;-59
2023/10/27 11:14:22;;;;;;;5.53;0.90;;;;;;;12.82;100.00;149327.06;5003791;28;20237;-59
2023/10/27 11:17:00;;;;;;;3.40;1.27;;;;;;;12.78;100.00;149317.09;4997533;28;20247;-58
2023/10/27 11:19:27;;;;;;;8.43;1.63;;;;;;;12.71;99.92;149299.66;4992790;28;20228;-58
2023/10/27 11:21:55;;;;;;;3.50;0.93;;;;;;;12.62;100.00;149277.22;4993164;28;20246;-58
2023/10/27 11:24:22;;;;;;;4.90;1.23;;;;;;;12.80;99.16;149322.06;5003657;28;20253;-58